createdAt,value
2023-01-03T00:04:48.952Z,6.81
2023-01-03T00:09:54.205Z,6.68
2023-01-03T00:14:57.470Z,6.78
2023-01-03T00:20:01.108Z,6.73
2023-01-03T00:25:06.449Z,6.90
2023-01-03T00:30:10.447Z,6.49
2023-01-03T00:35:13.591Z,6.51
2023-01-03T00:40:18.269Z,6.37
2023-01-03T00:45:24.394Z,6.17
2023-01-03T00:50:28.801Z,6.00
2023-01-03T00:55:35.733Z,5.85
2023-01-03T01:00:39.125Z,5.75
2023-01-03T01:05:42.203Z,5.32
2023-01-03T01:11:01.979Z,5.38
2023-01-03T01:16:06.827Z,5.49
2023-01-03T01:21:12.453Z,5.70
2023-01-03T01:26:18.957Z,5.74
2023-01-03T01:31:24.558Z,5.61
2023-01-03T01:36:29.702Z,5.80
2023-01-03T01:41:54.215Z,5.56
2023-01-03T01:46:57.950Z,6.02
2023-01-03T01:52:01.430Z,5.92
2023-01-03T01:57:05.860Z,6.08
2023-01-03T02:02:09.929Z,5.91
2023-01-03T02:07:13.225Z,6.01
2023-01-03T02:12:45.310Z,5.75
2023-01-03T02:17:58.344Z,5.88
2023-01-03T02:23:31.260Z,5.97
2023-01-03T02:29:03.443Z,5.92
2023-01-03T02:34:21.443Z,5.75
2023-01-03T02:39:29.834Z,5.97
2023-01-03T02:44:37.255Z,6.06
2023-01-03T02:49:45.732Z,6.13
2023-01-03T02:54:52.418Z,5.93
2023-01-03T02:59:59.777Z,5.82
2023-01-03T03:05:09.950Z,5.68
2023-01-03T03:10:30.486Z,5.55
2023-01-03T03:15:41.054Z,5.60
2023-01-03T03:21:02.704Z,5.55
2023-01-03T03:26:10.252Z,5.65
2023-01-03T03:31:17.648Z,5.66
2023-01-03T03:36:29.414Z,5.70
2023-01-03T03:41:58.183Z,5.47
2023-01-03T03:47:06.445Z,5.50
2023-01-03T03:52:15.413Z,5.36
2023-01-03T03:57:27.088Z,5.54
2023-01-03T04:02:32.395Z,5.27
2023-01-03T04:07:37.779Z,5.48
2023-01-03T04:12:41.362Z,5.50
2023-01-03T04:17:45.012Z,5.06
2023-01-03T04:22:49.547Z,5.12
2023-01-03T04:27:52.587Z,5.15
2023-01-03T04:32:56.521Z,5.13
2023-01-03T04:38:01.451Z,4.92
2023-01-03T04:43:21.073Z,4.89
2023-01-03T04:48:24.738Z,4.42
2023-01-03T04:53:29.563Z,4.53
2023-01-03T04:58:32.776Z,4.31
2023-01-03T05:03:37.843Z,4.31
2023-01-03T05:08:42.448Z,4.22
2023-01-03T05:13:45.695Z,3.97
2023-01-03T05:18:53.464Z,3.73
2023-01-03T05:24:15.276Z,3.87
2023-01-03T05:29:21.466Z,3.74
2023-01-03T05:34:24.634Z,3.82
2023-01-03T05:39:29.189Z,3.87
2023-01-03T05:44:35.188Z,3.84
2023-01-03T05:49:38.980Z,3.73
2023-01-03T05:54:44.009Z,3.65
2023-01-03T05:59:47.106Z,3.43
2023-01-03T06:04:50.466Z,3.35
2023-01-03T06:09:55.351Z,3.28
2023-01-03T06:14:58.886Z,3.04
2023-01-03T06:20:02.145Z,2.88
2023-01-03T06:25:07.335Z,2.94
2023-01-03T06:30:12.058Z,2.77
2023-01-03T06:35:15.275Z,2.67
2023-01-03T06:40:20.173Z,2.45
2023-01-03T06:45:40.869Z,2.38
2023-01-03T06:51:03.129Z,2.13
2023-01-03T06:56:08.644Z,2.23
2023-01-03T07:01:15.314Z,1.99
2023-01-03T07:06:18.597Z,2.06
2023-01-03T07:11:23.767Z,2.00
2023-01-03T07:16:28.961Z,1.82
2023-01-03T07:21:33.907Z,1.86
2023-01-03T07:26:38.456Z,1.88
2023-01-03T07:31:44.490Z,1.83
2023-01-03T07:36:49.109Z,1.79
2023-01-03T07:42:11.813Z,1.86
2023-01-03T07:47:15.655Z,1.66
2023-01-03T07:52:19.278Z,1.61
2023-01-03T07:57:23.769Z,1.63
2023-01-03T08:02:27.147Z,1.63
2023-01-03T08:07:30.385Z,1.63
2023-01-03T08:12:52.241Z,1.41
2023-01-03T08:17:55.471Z,1.62
2023-01-03T08:23:00.979Z,1.71
2023-01-03T08:28:07.121Z,1.53
2023-01-03T08:33:13.251Z,1.48
2023-01-03T08:38:20.494Z,1.61
2023-01-03T08:43:26.155Z,1.68
2023-01-03T08:48:29.327Z,1.72
2023-01-03T08:53:32.516Z,1.74
2023-01-03T08:58:36.973Z,1.80
2023-01-03T09:03:40.350Z,1.71
2023-01-03T09:08:43.649Z,2.10
2023-01-03T09:13:48.170Z,2.63
2023-01-03T09:18:51.569Z,3.07
2023-01-03T09:23:54.815Z,3.47
2023-01-03T09:28:59.666Z,3.85
2023-01-03T09:34:05.315Z,4.17
2023-01-03T09:39:08.653Z,4.54
2023-01-03T09:44:13.226Z,4.98
2023-01-03T09:49:16.428Z,5.21
2023-01-03T09:54:44.453Z,5.46
2023-01-03T10:00:06.635Z,6.00
2023-01-03T10:05:28.304Z,6.26
2023-01-03T10:10:39.965Z,6.75
2023-01-03T10:15:53.283Z,6.80
2023-01-03T10:21:05.464Z,7.04
2023-01-03T10:26:12.566Z,7.36
2023-01-03T10:31:31.528Z,7.57
2023-01-03T10:36:35.153Z,7.75
2023-01-03T10:41:44.774Z,7.72
2023-01-03T10:46:54.596Z,7.72
2023-01-03T10:52:02.234Z,7.90
2023-01-03T10:57:07.524Z,7.91
2023-01-03T11:02:19.762Z,8.10
2023-01-03T11:07:23.346Z,8.15
2023-01-03T11:12:31.404Z,8.30
2023-01-03T11:17:36.047Z,8.30
2023-01-03T11:22:43.542Z,8.31
2023-01-03T11:28:11.927Z,8.23
2023-01-03T11:33:46.160Z,8.16
2023-01-03T11:39:06.430Z,8.39
2023-01-03T11:44:32.210Z,8.08
2023-01-03T11:49:50.373Z,8.16
2023-01-03T11:55:15.888Z,8.28
2023-01-03T12:00:29.652Z,8.22
2023-01-03T12:05:44.890Z,8.05
2023-01-03T12:10:55.900Z,7.96
2023-01-03T12:16:05.527Z,7.94
2023-01-03T12:21:15.873Z,7.98
2023-01-03T12:26:19.675Z,8.29
2023-01-03T12:31:32.084Z,8.27
2023-01-03T12:36:43.457Z,8.05
2023-01-03T12:41:53.921Z,8.00
2023-01-03T12:46:57.738Z,8.24
2023-01-03T12:52:02.849Z,8.12
2023-01-03T12:57:33.703Z,8.12
2023-01-03T13:02:48.872Z,8.15
2023-01-03T13:08:04.770Z,8.19
2023-01-03T13:13:08.732Z,7.94
2023-01-03T13:18:35.405Z,7.88
2023-01-03T13:23:59.016Z,7.72
2023-01-03T13:29:35.978Z,7.49
2023-01-03T13:34:39.301Z,7.27
2023-01-03T13:39:58.189Z,7.31
2023-01-03T13:45:37.037Z,7.35
2023-01-03T13:50:40.210Z,7.43
2023-01-03T13:55:54.507Z,7.42
2023-01-03T14:01:05.529Z,7.32
2023-01-03T14:06:43.135Z,7.24
2023-01-03T14:12:14.788Z,7.04
2023-01-03T14:17:22.378Z,7.03
2023-01-03T14:22:35.103Z,6.73
2023-01-03T14:27:41.937Z,6.47
2023-01-03T14:32:45.583Z,6.43
2023-01-03T14:37:49.091Z,6.19
2023-01-03T14:42:53.961Z,6.01
2023-01-03T14:47:57.160Z,5.70
2023-01-03T14:53:02.532Z,5.70
2023-01-03T14:58:34.647Z,5.75
2023-01-03T15:03:42.721Z,5.95
2023-01-03T15:08:47.828Z,6.01
2023-01-03T15:13:56.739Z,6.16
2023-01-03T15:19:05.429Z,5.92
2023-01-03T15:24:16.718Z,5.99
2023-01-03T15:29:23.845Z,6.19
2023-01-03T15:34:43.358Z,6.20
2023-01-03T15:39:49.499Z,5.92
2023-01-03T15:44:54.249Z,6.17
2023-01-03T15:50:01.261Z,6.06
2023-01-03T15:55:05.081Z,5.95
2023-01-03T16:00:18.009Z,6.02
2023-01-03T16:05:23.386Z,5.89
2023-01-03T16:10:27.552Z,6.18
2023-01-03T16:15:32.420Z,6.25
2023-01-03T16:20:35.669Z,6.41
2023-01-03T16:25:38.923Z,6.53
2023-01-03T16:30:43.756Z,6.41
2023-01-03T16:35:47.255Z,6.35
2023-01-03T16:40:50.650Z,6.51
2023-01-03T16:45:58.906Z,6.63
2023-01-03T16:51:02.250Z,6.71
2023-01-03T16:56:07.608Z,6.45
2023-01-03T17:01:13.780Z,6.42
2023-01-03T17:06:33.459Z,6.51
2023-01-03T17:11:40.851Z,6.31
2023-01-03T17:16:46.173Z,6.26
2023-01-03T17:21:51.499Z,6.29
2023-01-03T17:27:03.125Z,6.36
2023-01-03T17:32:17.938Z,6.42
2023-01-03T17:37:23.021Z,6.09
2023-01-03T17:42:29.274Z,6.27
2023-01-03T17:47:52.025Z,6.33
2023-01-03T17:52:56.383Z,6.21
2023-01-03T17:58:02.809Z,6.18
2023-01-03T18:03:07.994Z,5.98
2023-01-03T18:08:19.309Z,5.80
2023-01-03T18:13:25.276Z,5.88
2023-01-03T18:18:32.150Z,5.67
2023-01-03T18:23:38.605Z,5.58
2023-01-03T18:28:41.760Z,5.44
2023-01-03T18:33:46.429Z,5.21
2023-01-03T18:38:49.629Z,4.99
2023-01-03T18:43:53.122Z,4.56
2023-01-03T18:48:57.817Z,4.67
2023-01-03T18:54:01.135Z,4.45
2023-01-03T18:59:09.005Z,4.37
2023-01-03T19:04:13.674Z,4.26
2023-01-03T19:09:22.068Z,4.22
2023-01-03T19:14:25.273Z,4.08
2023-01-03T19:19:30.133Z,4.08
2023-01-03T19:24:39.373Z,3.79
2023-01-03T19:29:43.831Z,3.89
2023-01-03T19:34:48.764Z,3.71
2023-01-03T19:39:51.966Z,3.90
2023-01-03T19:44:56.044Z,3.79
2023-01-03T19:50:11.513Z,3.85
2023-01-03T19:55:15.459Z,3.50
2023-01-03T20:00:22.047Z,3.51
2023-01-03T20:05:30.683Z,3.89
2023-01-03T20:10:37.733Z,3.56
2023-01-03T20:15:43.981Z,3.83
2023-01-03T20:20:49.770Z,3.89
2023-01-03T20:25:53.755Z,4.00
2023-01-03T20:30:58.157Z,3.91
2023-01-03T20:36:14.378Z,4.11
2023-01-03T20:41:21.424Z,4.36
2023-01-03T20:46:25.232Z,4.71
2023-01-03T20:51:30.907Z,4.85
2023-01-03T20:56:34.795Z,5.05
2023-01-03T21:01:39.085Z,4.97
2023-01-03T21:06:46.192Z,5.03
2023-01-03T21:11:50.197Z,5.36
2023-01-03T21:16:55.031Z,5.61
2023-01-03T21:22:00.232Z,5.47
2023-01-03T21:27:03.987Z,5.37
2023-01-03T21:32:07.792Z,5.56
2023-01-03T21:37:12.607Z,5.76
2023-01-03T21:42:34.812Z,5.61
2023-01-03T21:47:38.739Z,5.56
2023-01-03T21:52:43.665Z,5.38
2023-01-03T21:57:47.375Z,5.38
2023-01-03T22:03:08.688Z,5.46
2023-01-03T22:08:13.306Z,5.65
2023-01-03T22:13:16.525Z,5.58
2023-01-03T22:18:19.750Z,5.53
2023-01-03T22:23:24.287Z,5.56
2023-01-03T22:28:27.537Z,5.66
2023-01-03T22:33:30.800Z,5.55
2023-01-03T22:38:37.001Z,5.85
2023-01-03T22:43:40.523Z,5.70
2023-01-03T22:48:44.970Z,5.68
2023-01-03T22:53:49.633Z,5.82
2023-01-03T22:58:52.846Z,5.69
2023-01-03T23:03:56.788Z,5.68
2023-01-03T23:09:02.447Z,5.58
2023-01-03T23:14:08.396Z,5.49
2023-01-03T23:19:13.785Z,5.64
2023-01-03T23:24:21.174Z,5.56
2023-01-03T23:29:24.363Z,5.56
2023-01-03T23:34:27.620Z,5.46
2023-01-03T23:39:32.234Z,5.18
2023-01-03T23:44:37.054Z,5.04
2023-01-03T23:49:40.898Z,5.30
2023-01-03T23:54:46.645Z,5.30
2023-01-03T23:59:50.492Z,5.21
